1869 NOT_NAMED (1869042S18054)


IBTrACS version v04r00. Visit IBTrACS website for data access.
Please direct all questions to the IBTrACS Q and A forum

Storm track - Intensity - Wind Radii - Intensity Data - Source Data - All data

Summary Information

Storm ID 1869042S18054
Start Feb 11 06Z
End Feb 17 06Z
ATCF IDs
Track status Best track data.

Storm track plot

Map of storm track

Intensity plots

No Intensity information for this storm


Radial wind information

No radial wind information for this storm


Position and Intensity Table

BASIN ISO_TIME_________ NATURE LAT LON
degrees north degrees east
SI 1869-02-11 06:00:00 NR -17.80 54.10
SI 09:00:00 NR -17.85 54.03
SI 12:00:00 NR -17.90 53.96
SI 15:00:00 NR -17.95 53.88
SI 18:00:00 NR -18.02 53.80
SI 21:00:00 NR -18.11 53.70
SI 1869-02-12 00:00:00 NR -18.22 53.58
SI 03:00:00 NR -18.34 53.45
SI 06:00:00 NR -18.50 53.30
SI 09:00:00 NR -18.69 53.12
SI 12:00:00 NR -18.90 52.93
SI 15:00:00 NR -19.13 52.71
SI 18:00:00 NR -19.39 52.48
SI 21:00:00 NR -19.66 52.24
SI 1869-02-13 00:00:00 NR -19.93 52.00
SI 03:00:00 NR -20.22 51.75
SI 06:00:00 NR -20.50 51.50
SI 09:00:00 NR -20.78 51.25
SI 12:00:00 NR -21.06 51.00
SI 15:00:00 NR -21.34 50.75
SI 18:00:00 NR -21.62 50.50
SI 21:00:00 NR -21.90 50.26
SI 1869-02-14 00:00:00 NR -22.18 50.02
SI 03:00:00 NR -22.44 49.80
SI 06:00:00 NR -22.70 49.60
SI 09:00:00 NR -22.93 49.42
SI 12:00:00 NR -23.15 49.27
SI 15:00:00 NR -23.36 49.12
SI 18:00:00 NR -23.57 48.99
SI 21:00:00 NR -23.78 48.86
SI 1869-02-15 00:00:00 NR -23.98 48.74
SI 03:00:00 NR -24.19 48.62
SI 06:00:00 NR -24.40 48.50
SI 09:00:00 NR -24.62 48.36
SI 12:00:00 NR -24.84 48.22
SI 15:00:00 NR -25.07 48.07
SI 18:00:00 NR -25.30 47.93
SI 21:00:00 NR -25.54 47.80
SI 1869-02-16 00:00:00 NR -25.78 47.66
SI 03:00:00 NR -26.04 47.53
SI 06:00:00 NR -26.30 47.40
SI 09:00:00 NR -26.58 47.28
SI 12:00:00 NR -26.86 47.16
SI 15:00:00 NR -27.15 47.04
SI 18:00:00 NR -27.46 46.93
SI 21:00:00 NR -27.76 46.82
SI 1869-02-17 00:00:00 NR -28.07 46.71
SI 03:00:00 NR -28.39 46.61
SI 06:00:00 NR -28.70 46.50

Source Information

Agency Information
USA
TOKYO
CMA
HKO
NEWDELHI
REUNION WMO-Best-Tracks.txt:Line=774:xxxx869114
BOM
NADI
WELLINGTON
DS824
TD9636
TD9635
NEUMANN
MLC

All available IBTrACS Data

SEASON BASIN SUBBASIN ISO_TIME_________ NATURE LAT LON WMO AGENCY DIST2LAND LANDFALL IFLAG USA SSHS REUNION LAT REUNION LON REUNION TYPE REUNION TNUM STORM SPEED STORM DIR
Year degrees north degrees east km km 1 degrees north degrees east 1 kts degrees
1869 SI MM 1869-02-11 06:00:00 NR -17.80 54.10 reunion 379 379 _____O________ -1 -17.80 54.10 99 9.90 2 234
1869 SI MM 09:00:00 NR -17.85 54.03 383 372 _____P________ -1 -17.85 54.03 99 2 234
1869 SI MM 12:00:00 NR -17.90 53.96 372 366 _____P________ -1 -17.90 53.96 99 2 233
1869 SI MM 15:00:00 NR -17.95 53.88 366 366 _____P________ -1 -17.95 53.88 99 2 230
1869 SI MM 18:00:00 NR -18.02 53.80 370 360 _____P________ -1 -18.02 53.80 99 2 228
1869 SI MM 21:00:00 NR -18.11 53.70 365 355 _____P________ -1 -18.11 53.70 99 3 226
1869 SI MM 1869-02-12 00:00:00 NR -18.22 53.58 360 355 _____P________ -1 -18.22 53.58 99 3 225
1869 SI MM 03:00:00 NR -18.34 53.45 355 349 _____P________ -1 -18.34 53.45 99 4 224
1869 SI MM 06:00:00 NR -18.50 53.30 reunion 349 338 _____O________ -1 -18.50 53.30 99 9.90 5 222
1869 SI MM 09:00:00 NR -18.69 53.12 345 336 _____P________ -1 -18.69 53.12 99 5 222
1869 SI MM 12:00:00 NR -18.90 52.93 343 335 _____P________ -1 -18.90 52.93 99 6 221
1869 SI MM 15:00:00 NR -19.13 52.71 343 336 _____P________ -1 -19.13 52.71 99 6 221
1869 SI MM 18:00:00 NR -19.39 52.48 339 337 _____P________ -1 -19.39 52.48 99 7 220
1869 SI MM 21:00:00 NR -19.66 52.24 334 320 _____P________ -1 -19.66 52.24 99 7 220
1869 SI MM 1869-02-13 00:00:00 NR -19.93 52.00 320 308 _____P________ -1 -19.93 52.00 99 7 220
1869 SI MM 03:00:00 NR -20.22 51.75 303 287 _____P________ -1 -20.22 51.75 99 7 219
1869 SI MM 06:00:00 NR -20.50 51.50 reunion 287 272 _____O________ -1 -20.50 51.50 99 9.90 7 220
1869 SI MM 09:00:00 NR -20.78 51.25 275 254 _____P________ -1 -20.78 51.25 99 7 220
1869 SI MM 12:00:00 NR -21.06 51.00 259 245 _____P________ -1 -21.06 51.00 99 7 220
1869 SI MM 15:00:00 NR -21.34 50.75 240 227 _____P________ -1 -21.34 50.75 99 7 220
1869 SI MM 18:00:00 NR -21.62 50.50 227 211 _____P________ -1 -21.62 50.50 99 7 219
1869 SI MM 21:00:00 NR -21.90 50.26 214 188 _____P________ -1 -21.90 50.26 99 7 219
1869 SI MM 1869-02-14 00:00:00 NR -22.18 50.02 190 177 _____P________ -1 -22.18 50.02 99 7 218
1869 SI MM 03:00:00 NR -22.44 49.80 177 168 _____P________ -1 -22.44 49.80 99 7 217
1869 SI MM 06:00:00 NR -22.70 49.60 reunion 172 160 _____O________ -1 -22.70 49.60 99 9.90 6 216
1869 SI MM 09:00:00 NR -22.93 49.42 160 153 _____P________ -1 -22.93 49.42 99 5 214
1869 SI MM 12:00:00 NR -23.15 49.27 157 140 _____P________ -1 -23.15 49.27 99 5 213
1869 SI MM 15:00:00 NR -23.36 49.12 142 133 _____P________ -1 -23.36 49.12 99 5 211
1869 SI MM 18:00:00 NR -23.57 48.99 134 124 _____P________ -1 -23.57 48.99 99 5 210
1869 SI MM 21:00:00 NR -23.78 48.86 130 120 _____P________ -1 -23.78 48.86 99 5 209
1869 SI MM 1869-02-15 00:00:00 NR -23.98 48.74 120 112 _____P________ -1 -23.98 48.74 99 5 208
1869 SI MM 03:00:00 NR -24.19 48.62 113 106 _____P________ -1 -24.19 48.62 99 5 208
1869 SI MM 06:00:00 NR -24.40 48.50 reunion 110 106 _____O________ -1 -24.40 48.50 99 9.90 5 209
1869 SI MM 09:00:00 NR -24.62 48.36 110 96 _____P________ -1 -24.62 48.36 99 5 210
1869 SI MM 12:00:00 NR -24.84 48.22 96 96 _____P________ -1 -24.84 48.22 99 5 210
1869 SI MM 15:00:00 NR -25.07 48.07 101 87 _____P________ -1 -25.07 48.07 99 5 209
1869 SI MM 18:00:00 NR -25.30 47.93 87 83 _____P________ -1 -25.30 47.93 99 5 208
1869 SI MM 21:00:00 NR -25.54 47.80 89 89 _____P________ -1 -25.54 47.80 99 5 207
1869 SI MM 1869-02-16 00:00:00 NR -25.78 47.66 105 98 _____P________ -1 -25.78 47.66 99 6 206
1869 SI MM 03:00:00 NR -26.04 47.53 112 112 _____P________ -1 -26.04 47.53 99 6 204
1869 SI MM 06:00:00 NR -26.30 47.40 reunion 136 136 _____O________ -1 -26.30 47.40 99 9.90 6 202
1869 SI MM 09:00:00 NR -26.58 47.28 164 164 _____P________ -1 -26.58 47.28 99 6 201
1869 SI MM 12:00:00 NR -26.86 47.16 194 192 _____P________ -1 -26.86 47.16 99 6 200
1869 SI MM 15:00:00 NR -27.15 47.04 224 224 _____P________ -1 -27.15 47.04 99 6 199
1869 SI MM 18:00:00 NR -27.46 46.93 253 253 _____P________ -1 -27.46 46.93 99 6 198
1869 SI MM 21:00:00 NR -27.76 46.82 277 277 _____P________ -1 -27.76 46.82 99 6 197
1869 SI MM 1869-02-17 00:00:00 NR -28.07 46.71 303 303 _____P________ -1 -28.07 46.71 99 7 197
1869 SI MM 03:00:00 NR -28.39 46.61 331 331 _____P________ -1 -28.39 46.61 99 7 197
1869 SI MM 06:00:00 NR -28.70 46.50 reunion 360 _____O________ -1 -28.70 46.50 99 9.90 7 197